| time (UTC) | temp C | wind direction | speed KPH | gust KPH | rain 1hr cm | rain 24hr cm | rain mn cm | humidity % | barometer mb |
| 20260508214055 | 21 | 224 | 9.7 | 12.9 | 0.00 | 0.00 | 0.00 | 38 | 1017.5 |
| 20260508213552 | 21 | 203 | 8.0 | 9.7 | 0.00 | 0.00 | 0.00 | 35 | 1017.7 |
| 20260508213048 | 21 | 260 | 6.4 | 8.0 | 0.00 | 0.00 | 0.00 | 36 | 1017.7 |
| 20260508212545 | 21 | 234 | 9.7 | 12.9 | 0.00 | 0.00 | 0.00 | 36 | 1017.6 |
| 20260508212041 | 21 | 236 | 9.7 | 12.9 | 0.00 | 0.00 | 0.00 | 32 | 1017.7 |
| 20260508211537 | 21 | 222 | 8.0 | 11.3 | 0.00 | 0.00 | 0.00 | 36 | 1017.6 |
| 20260508211033 | 21 | 219 | 8.0 | 12.9 | 0.00 | 0.00 | 0.00 | 35 | 1017.7 |
| 20260508210530 | 21 | 298 | 9.7 | 12.9 | 0.00 | 0.00 | 0.00 | 35 | 1018.1 |
| 20260508210028 | 21 | 255 | 14.5 | 16.1 | 0.00 | 0.00 | 0.00 | 34 | 1018.0 |
| 20260508205524 | 21 | 253 | 11.3 | 14.5 | 0.00 | 0.00 | 0.00 | 37 | 1018.1 |
| 20260508205020 | 21 | 205 | 9.7 | 11.3 | 0.00 | 0.00 | 0.00 | 35 | 1018.1 |
| 20260508204518 | 21 | 242 | 9.7 | 12.9 | 0.00 | 0.00 | 0.00 | 38 | 1018.3 |
| 20260508204013 | 21 | 272 | 11.3 | 14.5 | 0.00 | 0.00 | 0.00 | 36 | 1018.1 |
| 20260508203509 | 21 | 221 | 14.5 | 20.9 | 0.00 | 0.00 | 0.00 | 35 | 1018.1 |
| 20260508203005 | 21 | 234 | 12.9 | 17.7 | 0.00 | 0.00 | 0.00 | 35 | 1017.8 |
| 20260508202502 | 21 | 211 | 11.3 | 12.9 | 0.00 | 0.00 | 0.00 | 35 | 1018.1 |
| 20260508201959 | 21 | 310 | 8.0 | 8.0 | 0.00 | 0.00 | 0.00 | 36 | 1018.0 |
| 20260508201456 | 21 | 251 | 8.0 | 9.7 | 0.00 | 0.00 | 0.00 | 33 | 1018.4 |
| 20260508200953 | 21 | 288 | 6.4 | 9.7 | 0.00 | 0.00 | 0.00 | 34 | 1018.1 |
| 20260508200450 | 21 | 216 | 14.5 | 17.7 | 0.00 | 0.00 | 0.00 | 33 | 1018.6 |
| 20260508195944 | 21 | 237 | 12.9 | 14.5 | 0.00 | 0.00 | 0.00 | 34 | 1018.5 |
| 20260508195442 | 21 | 201 | 4.8 | 8.0 | 0.00 | 0.00 | 0.00 | 37 | 1018.6 |
| 20260508194938 | 20 | 229 | 8.0 | 9.7 | 0.00 | 0.00 | 0.00 | 36 | 1018.7 |
| 20260508194435 | 20 | 199 | 8.0 | 12.9 | 0.00 | 0.00 | 0.00 | 36 | 1018.7 |
| 20260508193932 | 21 | 225 | 9.7 | 11.3 | 0.00 | 0.00 | 0.00 | 39 | 1018.9 |
| 20260508193430 | 20 | 220 | 9.7 | 11.3 | 0.00 | 0.00 | 0.00 | 39 | 1018.8 |
| 20260508192925 | 21 | 233 | 9.7 | 11.3 | 0.00 | 0.00 | 0.00 | 38 | 1018.7 |
| 20260508192423 | 21 | 27 | 6.4 | 9.7 | 0.00 | 0.00 | 0.00 | 39 | 1018.6 |
| 20260508191919 | 20 | 257 | 4.8 | 9.7 | 0.00 | 0.00 | 0.00 | 38 | 1018.8 |
| 20260508191417 | 20 | 80 | 3.2 | 3.2 | 0.00 | 0.00 | 0.00 | 37 | 1018.9 |
| 20260508190913 | 20 | 189 | 8.0 | 16.1 | 0.00 | 0.00 | 0.00 | 42 | 1019.1 |
| 20260508190410 | 20 | 204 | 11.3 | 12.9 | 0.00 | 0.00 | 0.00 | 35 | 1019.4 |
| 20260508185907 | 20 | 241 | 16.1 | 22.5 | 0.00 | 0.00 | 0.00 | 38 | 1019.5 |
| 20260508185404 | 20 | 230 | 12.9 | 14.5 | 0.00 | 0.00 | 0.00 | 35 | 1019.6 |
| 20260508184901 | 20 | 222 | 6.4 | 9.7 | 0.00 | 0.00 | 0.00 | 39 | 1019.3 |
| 20260508184359 | 20 | 238 | 12.9 | 16.1 | 0.00 | 0.00 | 0.00 | 37 | 1019.7 |
| 20260508183855 | 20 | 231 | 9.7 | 14.5 | 0.00 | 0.00 | 0.00 | 37 | 1019.6 |
| 20260508183352 | 20 | 170 | 4.8 | 8.0 | 0.00 | 0.00 | 0.00 | 38 | 1019.7 |
| 20260508182848 | 20 | 186 | 4.8 | 8.0 | 0.00 | 0.00 | 0.00 | 40 | 1019.9 |
| 20260508182345 | 20 | 188 | 12.9 | 17.7 | 0.00 | 0.00 | 0.00 | 39 | 1020.1 |
| 20260508181840 | 20 | 216 | 6.4 | 8.0 | 0.00 | 0.00 | 0.00 | 40 | 1020.0 |
| 20260508181337 | 20 | 355 | 8.0 | 11.3 | 0.00 | 0.00 | 0.00 | 40 | 1020.0 |
| 20260508180834 | 20 | 226 | 9.7 | 11.3 | 0.00 | 0.00 | 0.00 | 38 | 1020.2 |
| 20260508180331 | 19 | 257 | 6.4 | 9.7 | 0.00 | 0.00 | 0.00 | 39 | 1020.4 |
| 20260508175827 | 19 | 208 | 4.8 | 4.8 | 0.00 | 0.00 | 0.00 | 45 | 1020.7 |
| 20260508175324 | 20 | 224 | 17.7 | 20.9 | 0.00 | 0.00 | 0.00 | 37 | 1020.4 |
| 20260508174822 | 19 | 203 | 9.7 | 12.9 | 0.00 | 0.00 | 0.00 | 40 | 1020.8 |
| 20260508174319 | 19 | 223 | 1.6 | 4.8 | 0.00 | 0.00 | 0.00 | 42 | 1020.8 |
| 20260508173815 | 19 | 253 | 11.3 | 14.5 | 0.00 | 0.00 | 0.00 | 40 | 1021.0 |
| 20260508173313 | 19 | 314 | 6.4 | 9.7 | 0.00 | 0.00 | 0.00 | 40 | 1021.2 |
| 20260508172808 | 18 | 238 | 9.7 | 11.3 | 0.00 | 0.00 | 0.00 | 43 | 1021.2 |
| 20260508172307 | 18 | 241 | 11.3 | 12.9 | 0.00 | 0.00 | 0.00 | 40 | 1021.4 |
| 20260508171802 | 19 | 248 | 9.7 | 11.3 | 0.00 | 0.00 | 0.00 | 37 | 1021.4 |
| 20260508171258 | 18 | 229 | 8.0 | 11.3 | 0.00 | 0.00 | 0.00 | 44 | 1021.7 |
| 20260508170755 | 19 | 198 | 3.2 | 4.8 | 0.00 | 0.00 | 0.00 | 45 | 1021.7 |
| 20260508170253 | 18 | 211 | 4.8 | 8.0 | 0.00 | 0.00 | 0.00 | 44 | 1021.7 |
| 20260508165749 | 18 | 283 | 8.0 | 9.7 | 0.00 | 0.00 | 0.00 | 40 | 1021.7 |
| 20260508165247 | 18 | 235 | 11.3 | 12.9 | 0.00 | 0.00 | 0.00 | 42 | 1021.8 |
| 20260508164743 | 18 | 226 | 3.2 | 3.2 | 0.00 | 0.00 | 0.00 | 48 | 1021.9 |
| 20260508164240 | 18 | 270 | 11.3 | 12.9 | 0.00 | 0.00 | 0.00 | 45 | 1021.8 |
| 20260508163738 | 18 | 253 | 8.0 | 9.7 | 0.00 | 0.00 | 0.00 | 46 | 1022.2 |
| 20260508163235 | 17 | 250 | 6.4 | 8.0 | 0.00 | 0.00 | 0.00 | 45 | 1022.3 |
| 20260508162731 | 18 | 279 | 3.2 | 3.2 | 0.00 | 0.00 | 0.00 | 45 | 1022.2 |
| 20260508162228 | 18 | 233 | 9.7 | 12.9 | 0.00 | 0.00 | 0.00 | 45 | 1022.5 |
| 20260508161725 | 18 | 156 | 3.2 | 4.8 | 0.00 | 0.00 | 0.00 | 44 | 1022.5 |
| 20260508161222 | 18 | 214 | 8.0 | 12.9 | 0.00 | 0.00 | 0.00 | 49 | 1022.6 |
| 20260508160720 | 17 | 237 | 12.9 | 14.5 | 0.00 | 0.00 | 0.00 | 46 | 1022.7 |
| 20260508160218 | 17 | 258 | 9.7 | 14.5 | 0.00 | 0.00 | 0.00 | 47 | 1022.7 |
| 20260508155714 | 17 | 231 | 9.7 | 11.3 | 0.00 | 0.00 | 0.00 | 49 | 1022.6 |
| 20260508155212 | 17 | 211 | 8.0 | 9.7 | 0.00 | 0.00 | 0.00 | 47 | 1022.7 |
| 20260508154708 | 17 | 228 | 11.3 | 11.3 | 0.00 | 0.00 | 0.00 | 43 | 1022.8 |
| 20260508154206 | 17 | 248 | 6.4 | 8.0 | 0.00 | 0.00 | 0.00 | 46 | 1022.8 |
| 20260508153702 | 17 | 248 | 6.4 | 9.7 | 0.00 | 0.00 | 0.00 | 50 | 1022.7 |
| 20260508153159 | 16 | 206 | 14.5 | 16.1 | 0.00 | 0.00 | 0.00 | 44 | 1022.8 |
| 20260508152655 | 16 | 248 | 8.0 | 11.3 | 0.00 | 0.00 | 0.00 | 47 | 1023.2 |
| 20260508152151 | 16 | 285 | 6.4 | 9.7 | 0.00 | 0.00 | 0.00 | 46 | 1023.3 |
| 20260508151648 | 16 | 231 | 11.3 | 12.9 | 0.00 | 0.00 | 0.00 | 46 | 1023.1 |
| 20260508151145 | 16 | 256 | 11.3 | 12.9 | 0.00 | 0.00 | 0.00 | 44 | 1023.0 |
| 20260508150642 | 16 | 251 | 9.7 | 12.9 | 0.00 | 0.00 | 0.00 | 45 | 1023.3 |
| 20260508150138 | 16 | 231 | 11.3 | 12.9 | 0.00 | 0.00 | 0.00 | 46 | 1023.4 |
| 20260508145634 | 16 | 229 | 8.0 | 9.7 | 0.00 | 0.00 | 0.00 | 49 | 1023.0 |
| 20260508145131 | 15 | 245 | 4.8 | 8.0 | 0.00 | 0.00 | 0.00 | 50 | 1023.1 |
| 20260508144628 | 15 | 265 | 11.3 | 16.1 | 0.00 | 0.00 | 0.00 | 49 | 1023.2 |
| 20260508144126 | 15 | 279 | 9.7 | 12.9 | 0.00 | 0.00 | 0.00 | 49 | 1023.3 |
| 20260508143623 | 15 | 56 | 6.4 | 9.7 | 0.00 | 0.00 | 0.00 | 52 | 1023.2 |
| 20260508143120 | 15 | 243 | 11.3 | 14.5 | 0.00 | 0.00 | 0.00 | 49 | 1023.0 |
| 20260508142616 | 15 | 273 | 12.9 | 16.1 | 0.00 | 0.00 | 0.00 | 48 | 1023.0 |
| 20260508142113 | 15 | 261 | 11.3 | 12.9 | 0.00 | 0.00 | 0.00 | 49 | 1023.2 |
| 20260508141610 | 15 | 220 | 12.9 | 14.5 | 0.00 | 0.00 | 0.00 | 48 | 1023.2 |
| 20260508141108 | 15 | 293 | 11.3 | 12.9 | 0.00 | 0.00 | 0.00 | 47 | 1023.2 |
| 20260508140604 | 15 | 229 | 8.0 | 14.5 | 0.00 | 0.00 | 0.00 | 52 | 1023.2 |
| 20260508135556 | 15 | 285 | 3.2 | 3.2 | 0.00 | 0.00 | 0.00 | 56 | 1023.2 |
| 20260508135053 | 14 | 252 | 6.4 | 8.0 | 0.00 | 0.00 | 0.00 | 55 | 1023.2 |
| 20260508134550 | 13 | 288 | 4.8 | 4.8 | 0.00 | 0.00 | 0.00 | 52 | 1023.1 |
| 20260508134047 | 13 | 288 | 8.0 | 9.7 | 0.00 | 0.00 | 0.00 | 55 | 1023.3 |
| 20260508133543 | 13 | 269 | 6.4 | 8.0 | 0.00 | 0.00 | 0.00 | 54 | 1023.0 |
| 20260508133041 | 13 | 234 | 3.2 | 3.2 | 0.00 | 0.00 | 0.00 | 56 | 1023.1 |
| 20260508132539 | 13 | 201 | 4.8 | 8.0 | 0.00 | 0.00 | 0.00 | 61 | 1023.2 |
| 20260508132035 | 12 | 222 | 8.0 | 11.3 | 0.00 | 0.00 | 0.00 | 58 | 1022.9 |
| 20260508131530 | 12 | 230 | 6.4 | 8.0 | 0.00 | 0.00 | 0.00 | 61 | 1023.1 |
| 20260508131027 | 11 | 258 | 4.8 | 4.8 | 0.00 | 0.00 | 0.00 | 68 | 1023.2 |
| 20260508130525 | 11 | 290 | 1.6 | 1.6 | 0.00 | 0.00 | 0.00 | 69 | 1023.1 |
| 20260508130021 | 10 | 255 | 4.8 | 4.8 | 0.00 | 0.00 | 0.00 | 70 | 1023.2 |
| 20260508125517 | 10 | 279 | 3.2 | 4.8 | 0.00 | 0.00 | 0.00 | 70 | 1023.1 |
| 20260508125015 | 10 | 233 | 4.8 | 4.8 | 0.00 | 0.00 | 0.00 | 71 | 1023.0 |
| 20260508124512 | 9 | 356 | 0.0 | 0.0 | 0.00 | 0.00 | 0.00 | 72 | 1022.9 |
| 20260508124009 | 9 | 332 | 1.6 | 1.6 | 0.00 | 0.00 | 0.00 | 73 | 1022.9 |
| 20260508123508 | 8 | 313 | 3.2 | 3.2 | 0.00 | 0.00 | 0.00 | 73 | 1022.9 |
| 20260508123004 | 8 | 308 | 0.0 | 0.0 | 0.00 | 0.00 | 0.00 | 74 | 1022.9 |
| 20260508122501 | 7 | 276 | 0.0 | 1.6 | 0.00 | 0.00 | 0.00 | 76 | 1022.9 |
| 20260508121958 | 7 | 308 | 0.0 | 0.0 | 0.00 | 0.00 | 0.00 | 76 | 1022.8 |
| 20260508121456 | 7 | 215 | 1.6 | 1.6 | 0.00 | 0.00 | 0.00 | 78 | 1022.8 |
| 20260508120954 | 7 | 290 | 1.6 | 1.6 | 0.00 | 0.00 | 0.00 | 79 | 1022.7 |
| 20260508120451 | 6 | 328 | 0.0 | 1.6 | 0.00 | 0.00 | 0.00 | 79 | 1022.9 |
| 20260508115949 | 6 | 299 | 0.0 | 1.6 | 0.00 | 0.00 | 0.00 | 80 | 1022.8 |
| 20260508115447 | 6 | 311 | 0.0 | 1.6 | 0.00 | 0.00 | 0.00 | 82 | 1023.0 |
| 20260508114943 | 6 | 209 | 1.6 | 3.2 | 0.00 | 0.00 | 0.00 | 81 | 1022.9 |
| 20260508114440 | 5 | 164 | 3.2 | 3.2 | 0.00 | 0.00 | 0.00 | 82 | 1022.6 |
| 20260508113936 | 5 | 327 | 0.0 | 0.0 | 0.00 | 0.00 | 0.00 | 84 | 1022.5 |
| 20260508113434 | 5 | 312 | 0.0 | 1.6 | 0.00 | 0.00 | 0.00 | 84 | 1022.5 |
| 20260508112931 | 5 | 8 | 0.0 | 0.0 | 0.00 | 0.00 | 0.00 | 83 | 1022.6 |
| 20260508112428 | 5 | 62 | 1.6 | 1.6 | 0.00 | 0.00 | 0.00 | 83 | 1022.3 |
| 20260508111924 | 5 | 127 | 3.2 | 3.2 | 0.00 | 0.00 | 0.00 | 83 | 1022.5 |
| 20260508111422 | 4 | 97 | 4.8 | 4.8 | 0.00 | 0.00 | 0.00 | 84 | 1022.4 |
| 20260508110919 | 4 | 160 | 4.8 | 4.8 | 0.00 | 0.00 | 0.00 | 85 | 1022.5 |
| 20260508110417 | 4 | 355 | 1.6 | 1.6 | 0.00 | 0.00 | 0.00 | 85 | 1022.3 |
| 20260508105916 | 5 | 359 | 0.0 | 1.6 | 0.00 | 0.00 | 0.00 | 84 | 1022.3 |
| 20260508105412 | 5 | 108 | 1.6 | 1.6 | 0.00 | 0.00 | 0.00 | 81 | 1022.2 |
| 20260508104910 | 5 | 122 | 3.2 | 3.2 | 0.00 | 0.00 | 0.00 | 81 | 1022.2 |
| 20260508104407 | 5 | 151 | 1.6 | 1.6 | 0.00 | 0.00 | 0.00 | 82 | 1022.2 |
| 20260508103904 | 5 | 113 | 1.6 | 1.6 | 0.00 | 0.00 | 0.00 | 82 | 1022.2 |
| 20260508103401 | 5 | 111 | 3.2 | 3.2 | 0.00 | 0.00 | 0.00 | 82 | 1022.1 |
| 20260508102858 | 5 | 114 | 1.6 | 3.2 | 0.00 | 0.00 | 0.00 | 84 | 1022.0 |
| 20260508102356 | 5 | 119 | 3.2 | 3.2 | 0.00 | 0.00 | 0.00 | 83 | 1022.1 |
| 20260508101853 | 5 | 346 | 0.0 | 0.0 | 0.00 | 0.00 | 0.00 | 82 | 1022.3 |
| 20260508101350 | 5 | 349 | 0.0 | 0.0 | 0.00 | 0.00 | 0.00 | 78 | 1022.0 |
| 20260508100848 | 5 | 335 | 0.0 | 1.6 | 0.00 | 0.00 | 0.00 | 78 | 1022.2 |
| 20260508100347 | 5 | 126 | 1.6 | 1.6 | 0.00 | 0.00 | 0.00 | 78 | 1022.0 |
| 20260508095842 | 5 | 142 | 3.2 | 3.2 | 0.00 | 0.00 | 0.00 | 78 | 1022.0 |
| 20260508095340 | 5 | 299 | 0.0 | 1.6 | 0.00 | 0.00 | 0.00 | 78 | 1021.9 |
| 20260508094836 | 5 | 292 | 0.0 | 1.6 | 0.00 | 0.00 | 0.00 | 79 | 1021.9 |
| 20260508094333 | 5 | 108 | 1.6 | 3.2 | 0.00 | 0.00 | 0.00 | 79 | 1022.1 |
| 20260508093830 | 5 | 224 | 1.6 | 1.6 | 0.00 | 0.00 | 0.00 | 78 | 1022.2 |
| 20260508093328 | 6 | 211 | 1.6 | 3.2 | 0.00 | 0.00 | 0.00 | 78 | 1022.2 |
| 20260508092825 | 6 | 206 | 1.6 | 1.6 | 0.00 | 0.00 | 0.00 | 77 | 1022.2 |
| 20260508092323 | 6 | 127 | 3.2 | 3.2 | 0.00 | 0.00 | 0.00 | 77 | 1022.0 |
| 20260508091821 | 6 | 141 | 4.8 | 4.8 | 0.00 | 0.00 | 0.00 | 77 | 1022.1 |
| 20260508091317 | 6 | 133 | 1.6 | 1.6 | 0.00 | 0.00 | 0.00 | 78 | 1022.0 |
| 20260508090815 | 5 | 211 | 1.6 | 1.6 | 0.00 | 0.00 | 0.00 | 78 | 1022.2 |
| 20260508090314 | 5 | 45 | 0.0 | 1.6 | 0.00 | 0.00 | 0.00 | 79 | 1022.0 |
| 20260508085809 | 5 | 294 | 0.0 | 1.6 | 0.00 | 0.00 | 0.00 | 80 | 1021.9 |
| 20260508085307 | 5 | 331 | 0.0 | 0.0 | 0.00 | 0.00 | 0.00 | 80 | 1022.1 |
| 20260508084801 | 5 | 333 | 0.0 | 1.6 | 0.00 | 0.00 | 0.00 | 82 | 1022.3 |
| 20260508084259 | 5 | 337 | 0.0 | 0.0 | 0.00 | 0.00 | 0.00 | 84 | 1022.1 |
| 20260508083757 | 5 | 341 | 0.0 | 0.0 | 0.00 | 0.00 | 0.00 | 82 | 1022.3 |
| 20260508083254 | 5 | 329 | 0.0 | 0.0 | 0.00 | 0.00 | 0.00 | 83 | 1022.3 |
| 20260508082753 | 5 | 310 | 0.0 | 0.0 | 0.00 | 0.00 | 0.00 | 83 | 1022.1 |
| 20260508082252 | 5 | 334 | 0.0 | 0.0 | 0.00 | 0.00 | 0.00 | 84 | 1022.2 |
| 20260508081748 | 4 | 344 | 0.0 | 0.0 | 0.00 | 0.00 | 0.00 | 88 | 1022.3 |
| 20260508081245 | 3 | 321 | 0.0 | 0.0 | 0.00 | 0.00 | 0.00 | 90 | 1022.1 |
| 20260508080742 | 3 | 309 | 0.0 | 0.0 | 0.00 | 0.00 | 0.00 | 93 | 1022.0 |
| 20260508080240 | 3 | 330 | 0.0 | 0.0 | 0.00 | 0.00 | 0.00 | 94 | 1022.0 |
| 20260508075737 | 3 | 320 | 0.0 | 0.0 | 0.00 | 0.00 | 0.00 | 94 | 1022.1 |
| 20260508075233 | 3 | 330 | 0.0 | 0.0 | 0.00 | 0.00 | 0.00 | 94 | 1022.2 |
| 20260508074731 | 2 | 324 | 0.0 | 0.0 | 0.00 | 0.00 | 0.00 | 93 | 1022.4 |
| 20260508074229 | 3 | 315 | 1.6 | 1.6 | 0.00 | 0.00 | 0.00 | 91 | 1022.1 |
| 20260508073725 | 5 | 326 | 0.0 | 0.0 | 0.00 | 0.00 | 0.00 | 86 | 1021.8 |
| 20260508073223 | 4 | 320 | 0.0 | 0.0 | 0.00 | 0.00 | 0.00 | 86 | 1021.9 |
| 20260508072719 | 5 | 325 | 0.0 | 0.0 | 0.00 | 0.00 | 0.00 | 84 | 1021.9 |
| 20260508072216 | 5 | 320 | 0.0 | 0.0 | 0.00 | 0.00 | 0.00 | 83 | 1021.9 |
| 20260508071713 | 5 | 318 | 0.0 | 0.0 | 0.00 | 0.00 | 0.00 | 83 | 1022.1 |
| 20260508071212 | 5 | 327 | 0.0 | 0.0 | 0.00 | 0.00 | 0.00 | 80 | 1022.1 |
| 20260508070709 | 6 | 246 | 0.0 | 1.6 | 0.00 | 0.00 | 0.00 | 80 | 1022.1 |
| 20260508070208 | 6 | 124 | 3.2 | 3.2 | 0.00 | 0.00 | 0.00 | 79 | 1021.9 |
| 20260508065704 | 6 | 195 | 1.6 | 1.6 | 0.00 | 0.00 | 0.00 | 79 | 1022.0 |
| 20260508065202 | 6 | 314 | 1.6 | 1.6 | 0.00 | 0.00 | 0.00 | 79 | 1021.8 |
| 20260508064700 | 6 | 241 | 1.6 | 3.2 | 0.00 | 0.00 | 0.00 | 79 | 1022.1 |
| 20260508064158 | 6 | 177 | 1.6 | 3.2 | 0.00 | 0.00 | 0.00 | 78 | 1022.0 |
| 20260508063655 | 6 | 173 | 1.6 | 3.2 | 0.00 | 0.00 | 0.00 | 77 | 1021.9 |
| 20260508063152 | 6 | 139 | 1.6 | 1.6 | 0.00 | 0.00 | 0.00 | 78 | 1022.1 |
| 20260508062650 | 6 | 36 | 1.6 | 1.6 | 0.00 | 0.00 | 0.00 | 77 | 1022.0 |
| 20260508062147 | 6 | 52 | 0.0 | 0.0 | 0.00 | 0.00 | 0.00 | 77 | 1022.0 |
| 20260508061643 | 6 | 153 | 1.6 | 3.2 | 0.00 | 0.00 | 0.00 | 75 | 1021.9 |
| 20260508061141 | 6 | 95 | 1.6 | 1.6 | 0.00 | 0.00 | 0.00 | 75 | 1022.2 |
| 20260508060638 | 6 | 134 | 1.6 | 1.6 | 0.00 | 0.00 | 0.00 | 75 | 1022.0 |
| 20260508060135 | 6 | 111 | 1.6 | 1.6 | 0.00 | 0.00 | 0.00 | 78 | 1022.1 |
| 20260508055630 | 6 | 309 | 0.0 | 1.6 | 0.00 | 0.00 | 0.00 | 79 | 1022.1 |
| 20260508055128 | 6 | 12 | 1.6 | 1.6 | 0.00 | 0.00 | 0.00 | 77 | 1022.2 |
| 20260508054624 | 6 | 307 | 0.0 | 0.0 | 0.00 | 0.00 | 0.00 | 77 | 1022.1 |
| 20260508054122 | 6 | 323 | 0.0 | 0.0 | 0.00 | 0.00 | 0.00 | 76 | 1022.2 |
| 20260508053618 | 6 | 33 | 0.0 | 0.0 | 0.00 | 0.00 | 0.00 | 75 | 1022.3 |
| 20260508053116 | 7 | 325 | 0.0 | 0.0 | 0.00 | 0.00 | 0.00 | 72 | 1022.2 |
| 20260508052613 | 7 | 157 | 1.6 | 3.2 | 0.00 | 0.00 | 0.00 | 70 | 1022.2 |
| 20260508052110 | 7 | 114 | 1.6 | 3.2 | 0.00 | 0.00 | 0.00 | 72 | 1022.3 |
| 20260508051606 | 7 | 2 | 0.0 | 1.6 | 0.00 | 0.00 | 0.00 | 71 | 1022.5 |
| 20260508051102 | 7 | 285 | 0.0 | 1.6 | 0.00 | 0.00 | 0.00 | 67 | 1022.4 |
| 20260508050558 | 7 | 311 | 0.0 | 0.0 | 0.00 | 0.00 | 0.00 | 66 | 1022.4 |
| 20260508050056 | 7 | 324 | 1.6 | 1.6 | 0.00 | 0.00 | 0.00 | 67 | 1022.5 |
| 20260508045552 | 7 | 346 | 0.0 | 1.6 | 0.00 | 0.00 | 0.00 | 67 | 1022.4 |
| 20260508045050 | 7 | 318 | 0.0 | 1.6 | 0.00 | 0.00 | 0.00 | 70 | 1022.2 |
| 20260508044547 | 7 | 346 | 0.0 | 0.0 | 0.00 | 0.00 | 0.00 | 69 | 1022.3 |
| 20260508044043 | 7 | 339 | 0.0 | 0.0 | 0.00 | 0.00 | 0.00 | 68 | 1022.1 |
| 20260508043539 | 7 | 329 | 0.0 | 0.0 | 0.00 | 0.00 | 0.00 | 69 | 1022.2 |
| 20260508043037 | 7 | 331 | 0.0 | 0.0 | 0.00 | 0.00 | 0.00 | 68 | 1022.3 |
| 20260508042533 | 7 | 338 | 0.0 | 0.0 | 0.00 | 0.00 | 0.00 | 66 | 1022.3 |
| 20260508042031 | 8 | 333 | 0.0 | 0.0 | 0.00 | 0.00 | 0.00 | 65 | 1022.2 |
| 20260508041527 | 8 | 337 | 0.0 | 0.0 | 0.00 | 0.00 | 0.00 | 64 | 1022.2 |
| 20260508041024 | 8 | 333 | 0.0 | 0.0 | 0.00 | 0.00 | 0.00 | 65 | 1022.1 |
| 20260508040521 | 8 | 326 | 0.0 | 0.0 | 0.00 | 0.00 | 0.00 | 64 | 1022.1 |
| 20260508040018 | 8 | 342 | 0.0 | 0.0 | 0.00 | 0.00 | 0.00 | 65 | 1022.3 |
| 20260508035515 | 8 | 328 | 0.0 | 0.0 | 0.00 | 0.00 | 0.00 | 65 | 1022.3 |
| 20260508035012 | 8 | 346 | 0.0 | 0.0 | 0.00 | 0.00 | 0.00 | 65 | 1022.1 |
| 20260508034509 | 8 | 341 | 0.0 | 0.0 | 0.00 | 0.00 | 0.00 | 65 | 1022.3 |
| 20260508034006 | 8 | 335 | 0.0 | 0.0 | 0.00 | 0.00 | 0.00 | 65 | 1022.3 |
| 20260508033504 | 8 | 337 | 0.0 | 0.0 | 0.00 | 0.00 | 0.00 | 66 | 1022.3 |
| 20260508033001 | 7 | 330 | 0.0 | 0.0 | 0.00 | 0.00 | 0.00 | 67 | 1022.3 |
| 20260508032458 | 8 | 326 | 0.0 | 0.0 | 0.00 | 0.00 | 0.00 | 66 | 1022.2 |
| 20260508031955 | 8 | 338 | 0.0 | 0.0 | 0.00 | 0.00 | 0.00 | 65 | 1022.3 |
| 20260508031453 | 8 | 329 | 0.0 | 0.0 | 0.00 | 0.00 | 0.00 | 62 | 1022.3 |
| 20260508030948 | 9 | 331 | 0.0 | 0.0 | 0.00 | 0.00 | 0.00 | 61 | 1022.4 |
| 20260508030445 | 10 | 332 | 0.0 | 0.0 | 0.00 | 0.00 | 0.00 | 60 | 1022.3 |
| 20260508025943 | 10 | 351 | 0.0 | 0.0 | 0.00 | 0.00 | 0.00 | 59 | 1022.4 |
| 20260508025439 | 10 | 337 | 0.0 | 0.0 | 0.00 | 0.00 | 0.00 | 59 | 1022.3 |
| 20260508024936 | 10 | 342 | 0.0 | 0.0 | 0.00 | 0.00 | 0.00 | 60 | 1022.3 |
| 20260508024432 | 10 | 0 | 0.0 | 0.0 | 0.00 | 0.00 | 0.00 | 60 | 1022.0 |
| 20260508023929 | 10 | 329 | 0.0 | 0.0 | 0.00 | 0.00 | 0.00 | 61 | 1022.2 |
| 20260508023426 | 9 | 332 | 0.0 | 0.0 | 0.00 | 0.00 | 0.00 | 61 | 1022.1 |
| 20260508022923 | 10 | 331 | 0.0 | 0.0 | 0.00 | 0.00 | 0.00 | 60 | 1022.1 |
| 20260508022419 | 10 | 328 | 0.0 | 0.0 | 0.00 | 0.00 | 0.00 | 59 | 1022.0 |
| 20260508021916 | 10 | 327 | 0.0 | 0.0 | 0.00 | 0.00 | 0.00 | 58 | 1022.1 |
| 20260508021412 | 10 | 325 | 0.0 | 0.0 | 0.00 | 0.00 | 0.00 | 56 | 1021.9 |
| 20260508020908 | 10 | 319 | 0.0 | 0.0 | 0.00 | 0.00 | 0.00 | 56 | 1022.1 |
| 20260508020406 | 10 | 315 | 0.0 | 0.0 | 0.00 | 0.00 | 0.00 | 56 | 1021.8 |
| 20260508015903 | 10 | 333 | 0.0 | 0.0 | 0.00 | 0.00 | 0.00 | 56 | 1021.5 |
| 20260508015400 | 11 | 324 | 0.0 | 0.0 | 0.00 | 0.00 | 0.00 | 56 | 1021.4 |
| 20260508014856 | 11 | 325 | 0.0 | 0.0 | 0.00 | 0.00 | 0.00 | 55 | 1021.2 |
| 20260508014355 | 11 | 330 | 0.0 | 0.0 | 0.00 | 0.00 | 0.00 | 55 | 1021.4 |
| 20260508013855 | 11 | 323 | 1.6 | 1.6 | 0.00 | 0.00 | 0.00 | 55 | 1021.3 |
| 20260508013352 | 11 | 331 | 0.0 | 0.0 | 0.00 | 0.00 | 0.00 | 55 | 1021.1 |
| 20260508012849 | 11 | 320 | 0.0 | 1.6 | 0.00 | 0.00 | 0.00 | 55 | 1021.2 |
| 20260508012346 | 11 | 329 | 0.0 | 1.6 | 0.00 | 0.00 | 0.00 | 55 | 1021.0 |
| 20260508011844 | 11 | 324 | 0.0 | 1.6 | 0.00 | 0.00 | 0.00 | 54 | 1021.1 |
| 20260508011342 | 12 | 318 | 0.0 | 0.0 | 0.00 | 0.00 | 0.00 | 52 | 1020.8 |
| 20260508010838 | 12 | 304 | 1.6 | 3.2 | 0.00 | 0.00 | 0.00 | 51 | 1021.1 |
| 20260508010336 | 12 | 322 | 0.0 | 1.6 | 0.00 | 0.00 | 0.00 | 50 | 1020.9 |
| 20260508005833 | 12 | 321 | 1.6 | 1.6 | 0.00 | 0.00 | 0.00 | 48 | 1020.8 |
| 20260508005330 | 12 | 326 | 1.6 | 1.6 | 0.00 | 0.00 | 0.00 | 48 | 1020.9 |
| 20260508004826 | 12 | 324 | 0.0 | 0.0 | 0.00 | 0.00 | 0.00 | 47 | 1020.8 |
| 20260508004322 | 13 | 325 | 1.6 | 1.6 | 0.00 | 0.00 | 0.00 | 46 | 1020.6 |
| 20260508003818 | 13 | 304 | 1.6 | 1.6 | 0.00 | 0.00 | 0.00 | 45 | 1020.8 |
| 20260508003316 | 13 | 318 | 1.6 | 1.6 | 0.00 | 0.00 | 0.00 | 45 | 1020.8 |
| 20260508002813 | 13 | 313 | 3.2 | 3.2 | 0.00 | 0.00 | 0.00 | 44 | 1020.5 |
| 20260508002309 | 14 | 309 | 1.6 | 1.6 | 0.00 | 0.00 | 0.00 | 43 | 1020.5 |
| 20260508001806 | 15 | 323 | 3.2 | 3.2 | 0.00 | 0.00 | 0.00 | 42 | 1020.3 |
| 20260508001301 | 15 | 324 | 1.6 | 1.6 | 0.00 | 0.00 | 0.00 | 42 | 1020.5 |
| 20260508000758 | 15 | 306 | 3.2 | 3.2 | 0.00 | 0.00 | 0.00 | 41 | 1020.4 |
| 20260508000257 | 15 | 306 | 4.8 | 4.8 | 0.00 | 0.00 | 0.00 | 40 | 1020.3 |
| 20260507235751 | 15 | 280 | 6.4 | 9.7 | 0.00 | 0.00 | 0.00 | 38 | 1020.5 |
| 20260507235249 | 15 | 308 | 4.8 | 4.8 | 0.00 | 0.00 | 0.00 | 38 | 1020.3 |
| 20260507234745 | 16 | 293 | 8.0 | 9.7 | 0.00 | 0.00 | 0.00 | 37 | 1020.3 |
| 20260507234242 | 16 | 275 | 3.2 | 3.2 | 0.00 | 0.00 | 0.00 | 39 | 1020.4 |
| 20260507233738 | 16 | 266 | 6.4 | 9.7 | 0.00 | 0.00 | 0.00 | 37 | 1020.2 |
| 20260507233237 | 16 | 282 | 4.8 | 4.8 | 0.00 | 0.00 | 0.00 | 37 | 1020.2 |
| 20260507232734 | 16 | 314 | 6.4 | 9.7 | 0.00 | 0.00 | 0.00 | 36 | 1020.3 |
| 20260507232231 | 16 | 331 | 8.0 | 11.3 | 0.00 | 0.00 | 0.00 | 38 | 1020.3 |
| 20260507231727 | 16 | 304 | 9.7 | 11.3 | 0.00 | 0.00 | 0.00 | 35 | 1020.4 |
| 20260507231224 | 16 | 304 | 8.0 | 11.3 | 0.00 | 0.00 | 0.00 | 36 | 1020.0 |
| 20260507230721 | 17 | 2 | 3.2 | 4.8 | 0.00 | 0.00 | 0.00 | 33 | 1020.2 |
| 20260507230219 | 17 | 301 | 8.0 | 11.3 | 0.00 | 0.00 | 0.00 | 35 | 1020.1 |
| 20260507225717 | 16 | 315 | 4.8 | 4.8 | 0.00 | 0.00 | 0.00 | 35 | 1020.1 |
| 20260507225214 | 17 | 341 | 4.8 | 8.0 | 0.00 | 0.00 | 0.00 | 35 | 1019.9 |
| 20260507224710 | 17 | 336 | 4.8 | 8.0 | 0.00 | 0.00 | 0.00 | 33 | 1020.2 |
| 20260507224207 | 17 | 280 | 1.6 | 1.6 | 0.00 | 0.00 | 0.00 | 32 | 1020.0 |
| 20260507223703 | 16 | 308 | 9.7 | 12.9 | 0.00 | 0.00 | 0.00 | 35 | 1020.0 |
| 20260507223200 | 16 | 306 | 11.3 | 14.5 | 0.00 | 0.00 | 0.00 | 36 | 1019.9 |
| 20260507222657 | 17 | 243 | 9.7 | 11.3 | 0.00 | 0.00 | 0.00 | 35 | 1020.2 |
| 20260507222153 | 17 | 332 | 1.6 | 1.6 | 0.00 | 0.00 | 0.00 | 31 | 1020.2 |
| 20260507221649 | 17 | 271 | 3.2 | 4.8 | 0.00 | 0.00 | 0.00 | 33 | 1020.3 |
| 20260507221146 | 17 | 291 | 8.0 | 9.7 | 0.00 | 0.00 | 0.00 | 32 | 1020.4 |
| 20260507220643 | 17 | 314 | 6.4 | 8.0 | 0.00 | 0.00 | 0.00 | 33 | 1020.1 |
| 20260507220142 | 17 | 307 | 3.2 | 3.2 | 0.00 | 0.00 | 0.00 | 34 | 1020.2 |
| 20260507215637 | 16 | 328 | 3.2 | 3.2 | 0.00 | 0.00 | 0.00 | 35 | 1020.0 |
| 20260507215135 | 17 | 345 | 4.8 | 4.8 | 0.00 | 0.00 | 0.00 | 39 | 1020.1 |
| 20260507214632 | 17 | 304 | 6.4 | 8.0 | 0.00 | 0.00 | 0.00 | 42 | 1020.2 |